Time;durP1;ratioP1;P1;durP2;ratioP2;P2;SDS_P1;SDS_P2;PMS_P1;PMS_P2;Temp;Humidity;BMP_temperature;BMP_pressure;BME280_temperature;BME280_humidity;BME280_pressure;Samples;Min_cycle;Max_cycle;Signal;HPM_P1;HPM_P2
2021/12/25 00:02:08;;;;;;;4.70;0.80;;;;;;;;;;4888224;29;20040;-80
2021/12/25 00:04:34;;;;;;;0.47;0.28;;;;;;;;;;4888493;29;20050;-80
2021/12/25 00:07:01;;;;;;;2.33;0.63;;;;;;;;;;4891521;29;20506;-80
2021/12/25 00:09:27;;;;;;;11.93;0.98;;;;;;;;;;4887437;29;20488;-80
2021/12/25 00:11:53;;;;;;;1.27;0.60;;;;;;;;;;4888263;29;20036;-80
2021/12/25 00:14:22;;;;;;;1.27;0.70;;;;;;;;;;4898111;29;20029;-81
2021/12/25 00:16:48;;;;;;;7.80;0.82;;;;;;;;;;4903721;29;20059;-81
2021/12/25 00:19:14;;;;;;;5.90;1.00;;;;;;;;;;4890381;29;20032;-81
2021/12/25 00:21:40;;;;;;;5.10;0.75;;;;;;;;;;4900724;29;20032;-80
2021/12/25 00:24:06;;;;;;;5.60;0.90;;;;;;;;;;4889342;29;20044;-82
2021/12/25 00:27:34;;;;;;;7.70;0.68;;;;;;;;;;4903932;29;20028;-82
2021/12/25 00:34:36;;;;;;;4.07;0.95;;;;;;;;;;4906647;29;20488;-80
2021/12/25 00:37:03;;;;;;;2.38;0.88;;;;;;;;;;4909237;29;20036;-82
2021/12/25 00:39:29;;;;;;;3.40;0.93;;;;;;;;;;4894693;29;20036;-80
2021/12/25 00:41:56;;;;;;;10.70;1.70;;;;;;;;;;4891486;29;20317;-81
2021/12/25 00:44:22;;;;;;;3.40;0.73;;;;;;;;;;4905161;29;20043;-80
2021/12/25 00:46:49;;;;;;;2.78;0.90;;;;;;;;;;4908535;29;20459;-80
2021/12/25 00:49:15;;;;;;;6.35;0.60;;;;;;;;;;4888578;29;20127;-80
2021/12/25 00:51:41;;;;;;;1.30;0.70;;;;;;;;;;4882228;28;20640;-80
2021/12/25 00:54:07;;;;;;;4.68;1.05;;;;;;;;;;4874176;29;20055;-80
2021/12/25 00:56:33;;;;;;;1.50;0.50;;;;;;;;;;4875828;29;20032;-80
2021/12/25 00:58:59;;;;;;;0.63;0.63;;;;;;;;;;4873464;29;20123;-82
2021/12/25 01:01:28;;;;;;;2.38;0.98;;;;;;;;;;4873041;29;20120;-80
2021/12/25 01:03:55;;;;;;;1.38;0.65;;;;;;;;;;4883679;29;20044;-80
2021/12/25 01:06:21;;;;;;;5.55;0.63;;;;;;;;;;4875348;29;20043;-80
2021/12/25 01:08:47;;;;;;;6.88;0.88;;;;;;;;;;4870085;29;20057;-81
2021/12/25 01:11:14;;;;;;;0.63;0.50;;;;;;;;;;4873499;29;20131;-80
2021/12/25 01:13:47;;;;;;;2.63;0.75;;;;;;;;;;4888865;29;20516;-80
2021/12/25 01:29:50;;;;;;;2.58;0.68;;;;;;;;;;4871925;29;20439;-80
2021/12/25 01:48:03;;;;;;;1.33;0.63;;;;;;;;;;4887573;29;20095;-80
2021/12/25 01:50:29;;;;;;;0.40;0.20;;;;;;;;;;4868608;28;20047;-80
2021/12/25 01:52:56;;;;;;;0.80;0.32;;;;;;;;;;4876828;29;20119;-80
2021/12/25 01:55:24;;;;;;;0.60;0.40;;;;;;;;;;4876741;29;20092;-80
2021/12/25 01:57:52;;;;;;;10.80;0.52;;;;;;;;;;4872655;29;20377;-81
2021/12/25 02:00:21;;;;;;;1.08;0.50;;;;;;;;;;4870970;29;20071;-80
2021/12/25 02:02:47;;;;;;;0.32;0.25;;;;;;;;;;4890440;29;20568;-80
2021/12/25 02:05:14;;;;;;;2.42;0.57;;;;;;;;;;4870332;29;20051;-80
2021/12/25 02:07:40;;;;;;;0.45;0.10;;;;;;;;;;4884475;29;20043;-80
2021/12/25 02:10:07;;;;;;;1.48;0.50;;;;;;;;;;4874340;29;20409;-80
2021/12/25 02:12:34;;;;;;;1.92;0.50;;;;;;;;;;4869078;29;20032;-80
2021/12/25 02:15:08;;;;;;;6.13;0.90;;;;;;;;;;4876675;29;20519;-80
2021/12/25 02:17:52;;;;;;;0.55;0.17;;;;;;;;;;4874381;29;20036;-80
2021/12/25 02:20:34;;;;;;;5.57;0.68;;;;;;;;;;4868872;29;20025;-80
2021/12/25 02:23:03;;;;;;;1.55;0.55;;;;;;;;;;4885786;29;20123;-80
2021/12/25 02:25:32;;;;;;;4.63;0.45;;;;;;;;;;4890207;29;20066;-80
2021/12/25 02:27:59;;;;;;;3.10;0.65;;;;;;;;;;4869061;29;20041;-80
2021/12/25 02:30:25;;;;;;;0.73;0.32;;;;;;;;;;4886347;29;20043;-81
2021/12/25 02:32:51;;;;;;;0.43;0.10;;;;;;;;;;4871722;29;20044;-81
2021/12/25 02:35:18;;;;;;;0.32;0.32;;;;;;;;;;4881778;29;20025;-80
2021/12/25 02:37:44;;;;;;;1.17;0.10;;;;;;;;;;4876444;29;20040;-81
2021/12/25 02:40:11;;;;;;;0.55;0.45;;;;;;;;;;4886980;29;20036;-82
2021/12/25 02:42:37;;;;;;;1.60;0.30;;;;;;;;;;4870042;29;20151;-80
2021/12/25 02:45:04;;;;;;;3.45;0.50;;;;;;;;;;4870711;29;20139;-81
2021/12/25 02:47:31;;;;;;;1.15;0.10;;;;;;;;;;4867629;29;20112;-82
2021/12/25 02:49:57;;;;;;;0.20;0.20;;;;;;;;;;4873220;29;20033;-81
2021/12/25 02:52:36;;;;;;;2.95;0.20;;;;;;;;;;4880049;28;20060;-80
2021/12/25 02:55:02;;;;;;;0.15;0.15;;;;;;;;;;4873099;29;20593;-80
2021/12/25 02:57:28;;;;;;;0.40;0.20;;;;;;;;;;4869735;29;20440;-80
2021/12/25 02:59:54;;;;;;;1.65;0.45;;;;;;;;;;4875241;29;20036;-80
2021/12/25 03:02:20;;;;;;;4.28;0.52;;;;;;;;;;4870426;29;20092;-80
2021/12/25 03:04:48;;;;;;;0.32;0.32;;;;;;;;;;4885319;29;20037;-82
2021/12/25 03:07:14;;;;;;;3.60;0.52;;;;;;;;;;4868747;29;20056;-81
2021/12/25 03:09:41;;;;;;;2.63;0.17;;;;;;;;;;4870428;29;20032;-80
2021/12/25 03:12:08;;;;;;;3.55;0.40;;;;;;;;;;4871337;29;20088;-81
2021/12/25 03:14:50;;;;;;;0.30;0.20;;;;;;;;;;4889486;29;20545;-80
2021/12/25 03:17:17;;;;;;;0.13;0.10;;;;;;;;;;4882529;29;20040;-80
2021/12/25 03:19:42;;;;;;;2.78;0.40;;;;;;;;;;4871146;29;20029;-81
2021/12/25 03:22:09;;;;;;;1.35;0.30;;;;;;;;;;4872484;29;20132;-80
2021/12/25 03:24:35;;;;;;;0.73;0.30;;;;;;;;;;4870952;29;20513;-81
2021/12/25 03:27:01;;;;;;;1.20;0.30;;;;;;;;;;4886772;29;20112;-80
2021/12/25 03:29:27;;;;;;;0.30;0.30;;;;;;;;;;4885403;29;20400;-80
2021/12/25 03:31:54;;;;;;;0.77;0.32;;;;;;;;;;4872371;29;20038;-80
2021/12/25 03:34:20;;;;;;;4.05;0.75;;;;;;;;;;4883646;29;20378;-80
2021/12/25 03:36:47;;;;;;;0.55;0.30;;;;;;;;;;4868429;29;20068;-80
2021/12/25 03:39:14;;;;;;;0.03;0.00;;;;;;;;;;4869421;29;20040;-80
2021/12/25 03:41:40;;;;;;;1.25;0.20;;;;;;;;;;4883080;29;20037;-80
2021/12/25 03:44:06;;;;;;;1.15;0.38;;;;;;;;;;4872542;29;20466;-81
2021/12/25 03:46:32;;;;;;;1.00;0.30;;;;;;;;;;4872094;29;20061;-80
2021/12/25 03:49:07;;;;;;;0.88;0.10;;;;;;;;;;4870674;29;20044;-80
2021/12/25 03:53:09;;;;;;;0.73;0.40;;;;;;;;;;4872572;29;20500;-80
2021/12/25 04:00:02;;;;;;;2.97;0.47;;;;;;;;;;4886729;29;20436;-80
2021/12/25 04:02:35;;;;;;;7.97;0.73;;;;;;;;;;4869317;29;20092;-80
2021/12/25 04:05:03;;;;;;;0.10;0.10;;;;;;;;;;4872369;29;20060;-80
2021/12/25 04:10:14;;;;;;;0.50;0.17;;;;;;;;;;4894333;29;20052;-80
2021/12/25 04:12:40;;;;;;;1.95;0.38;;;;;;;;;;4868525;29;20079;-80
2021/12/25 04:15:06;;;;;;;0.32;0.17;;;;;;;;;;4877033;29;20032;-81
2021/12/25 04:17:32;;;;;;;1.25;0.22;;;;;;;;;;4874134;29;20025;-80
2021/12/25 04:20:01;;;;;;;0.57;0.10;;;;;;;;;;4877124;29;21784;-80
2021/12/25 04:22:33;;;;;;;3.10;0.32;;;;;;;;;;4872986;29;20037;-80
2021/12/25 04:24:59;;;;;;;0.40;0.25;;;;;;;;;;4875864;29;20095;-80
2021/12/25 04:27:26;;;;;;;0.40;0.30;;;;;;;;;;4877200;29;20036;-81
2021/12/25 04:30:00;;;;;;;2.33;0.43;;;;;;;;;;4871082;29;20029;-80
2021/12/25 05:02:50;;;;;;;0.95;0.30;;;;;;;;;;4869281;29;20037;-81
2021/12/25 05:05:18;;;;;;;0.75;0.35;;;;;;;;;;4890813;29;20469;-80
2021/12/25 05:07:44;;;;;;;0.63;0.25;;;;;;;;;;4892392;29;20433;-80
2021/12/25 05:10:10;;;;;;;0.40;0.25;;;;;;;;;;4893940;29;20036;-80
2021/12/25 05:12:37;;;;;;;2.03;0.60;;;;;;;;;;4892224;29;20078;-80
2021/12/25 05:15:03;;;;;;;0.95;0.20;;;;;;;;;;4888514;29;20055;-80
2021/12/25 05:17:29;;;;;;;0.75;0.28;;;;;;;;;;4896388;29;20087;-80
2021/12/25 05:19:56;;;;;;;1.05;0.38;;;;;;;;;;4888540;29;20491;-80
2021/12/25 05:22:22;;;;;;;1.00;0.60;;;;;;;;;;4893815;29;20038;-82
2021/12/25 05:24:48;;;;;;;3.17;0.47;;;;;;;;;;4891711;29;20127;-81
2021/12/25 05:27:15;;;;;;;0.25;0.20;;;;;;;;;;4902482;29;20475;-81
2021/12/25 05:29:46;;;;;;;1.77;0.55;;;;;;;;;;4906527;29;20127;-80
2021/12/25 05:32:12;;;;;;;4.70;0.32;;;;;;;;;;4909418;29;20028;-81
2021/12/25 05:34:38;;;;;;;0.50;0.20;;;;;;;;;;4895385;29;20409;-80
2021/12/25 05:37:05;;;;;;;0.95;0.32;;;;;;;;;;4906784;29;20039;-80
2021/12/25 05:39:31;;;;;;;4.95;0.95;;;;;;;;;;4893823;29;20028;-81
2021/12/25 05:41:58;;;;;;;4.55;0.77;;;;;;;;;;4907356;29;20036;-80
2021/12/25 05:44:25;;;;;;;0.10;0.10;;;;;;;;;;4896484;29;20532;-80
2021/12/25 05:46:51;;;;;;;1.45;0.45;;;;;;;;;;4891887;29;20032;-80
2021/12/25 05:49:17;;;;;;;0.98;0.22;;;;;;;;;;4889733;29;20095;-80
2021/12/25 05:51:56;;;;;;;3.50;0.35;;;;;;;;;;4892211;28;20045;-81
2021/12/25 05:54:22;;;;;;;4.43;0.65;;;;;;;;;;4876673;29;20040;-80
2021/12/25 05:56:48;;;;;;;1.60;0.80;;;;;;;;;;4872786;29;20184;-80
2021/12/25 05:59:14;;;;;;;0.25;0.20;;;;;;;;;;4869892;29;20104;-81
2021/12/25 06:01:40;;;;;;;2.70;0.35;;;;;;;;;;4890637;29;20449;-80
2021/12/25 06:04:06;;;;;;;3.60;0.90;;;;;;;;;;4875346;29;20040;-80
2021/12/25 06:06:32;;;;;;;3.92;0.63;;;;;;;;;;4888629;29;20084;-81
2021/12/25 06:08:58;;;;;;;0.22;0.20;;;;;;;;;;4887460;29;20043;-81
2021/12/25 06:11:25;;;;;;;0.10;0.10;;;;;;;;;;4871993;29;20032;-80
2021/12/25 06:14:07;;;;;;;4.93;0.65;;;;;;;;;;4870714;29;20083;-81
2021/12/25 06:16:34;;;;;;;2.92;0.13;;;;;;;;;;4875735;29;20489;-80
2021/12/25 06:19:00;;;;;;;0.22;0.13;;;;;;;;;;4871986;29;20401;-79
2021/12/25 06:21:26;;;;;;;3.75;0.52;;;;;;;;;;4871890;29;20139;-80
2021/12/25 06:23:52;;;;;;;2.35;0.30;;;;;;;;;;4872025;29;20037;-80
2021/12/25 06:26:18;;;;;;;0.90;0.32;;;;;;;;;;4872128;29;20048;-80
2021/12/25 06:28:44;;;;;;;6.90;0.43;;;;;;;;;;4881481;29;20048;-80
2021/12/25 06:31:10;;;;;;;0.50;0.20;;;;;;;;;;4865948;29;20053;-80
2021/12/25 06:33:36;;;;;;;2.60;0.63;;;;;;;;;;4872339;29;20421;-80
2021/12/25 06:36:02;;;;;;;0.45;0.00;;;;;;;;;;4887215;29;20025;-80
2021/12/25 06:38:28;;;;;;;1.00;0.22;;;;;;;;;;4872916;29;20032;-81
2021/12/25 06:40:54;;;;;;;4.50;0.73;;;;;;;;;;4874389;29;20120;-80
2021/12/25 06:43:20;;;;;;;0.38;0.22;;;;;;;;;;4869103;29;20131;-80
2021/12/25 06:45:46;;;;;;;1.00;0.20;;;;;;;;;;4874067;29;20040;-80
2021/12/25 06:48:12;;;;;;;1.05;0.28;;;;;;;;;;4886653;29;20033;-81
2021/12/25 06:50:38;;;;;;;1.55;0.45;;;;;;;;;;4875843;29;20044;-80
2021/12/25 06:53:04;;;;;;;2.28;0.30;;;;;;;;;;4872232;28;20045;-81
2021/12/25 06:55:30;;;;;;;0.95;0.40;;;;;;;;;;4871887;29;20033;-81
2021/12/25 06:57:58;;;;;;;0.05;0.05;;;;;;;;;;4873361;29;20473;-80
2021/12/25 07:00:24;;;;;;;2.55;0.63;;;;;;;;;;4868959;29;20035;-80
2021/12/25 07:02:50;;;;;;;0.88;0.25;;;;;;;;;;4888806;29;20473;-80
2021/12/25 07:05:17;;;;;;;0.17;0.17;;;;;;;;;;4873072;29;20040;-80
2021/12/25 07:07:43;;;;;;;14.50;0.65;;;;;;;;;;4869899;29;20036;-80
2021/12/25 07:10:09;;;;;;;4.07;0.57;;;;;;;;;;4869212;29;20029;-80
2021/12/25 07:12:37;;;;;;;0.22;0.10;;;;;;;;;;4888392;29;20040;-80
2021/12/25 07:15:04;;;;;;;1.55;0.40;;;;;;;;;;4867056;29;20112;-80
2021/12/25 07:17:30;;;;;;;3.63;0.95;;;;;;;;;;4889906;29;20051;-80
2021/12/25 07:19:56;;;;;;;0.30;0.30;;;;;;;;;;4887359;29;20035;-81
2021/12/25 07:22:22;;;;;;;3.55;0.60;;;;;;;;;;4885946;29;20040;-81
2021/12/25 07:24:48;;;;;;;2.38;0.52;;;;;;;;;;4873311;29;20121;-80
2021/12/25 07:27:14;;;;;;;0.65;0.40;;;;;;;;;;4886794;29;20028;-80
2021/12/25 07:29:40;;;;;;;0.93;0.22;;;;;;;;;;4887765;29;20056;-80
2021/12/25 07:32:07;;;;;;;0.88;0.40;;;;;;;;;;4866068;29;20509;-81
2021/12/25 07:34:33;;;;;;;1.08;0.40;;;;;;;;;;4885165;29;20029;-80
2021/12/25 07:37:00;;;;;;;3.30;0.43;;;;;;;;;;4876042;29;20032;-80
2021/12/25 07:39:26;;;;;;;0.68;0.40;;;;;;;;;;4874498;29;20649;-80
2021/12/25 07:41:52;;;;;;;1.45;0.77;;;;;;;;;;4872678;29;20040;-80
2021/12/25 07:44:19;;;;;;;0.52;0.22;;;;;;;;;;4878750;29;20493;-80
2021/12/25 07:46:45;;;;;;;1.35;0.47;;;;;;;;;;4875145;29;20024;-80
2021/12/25 07:49:20;;;;;;;3.95;1.38;;;;;;;;;;4873685;29;20037;-80
2021/12/25 07:51:46;;;;;;;9.80;0.70;;;;;;;;;;4874436;29;20227;-80
2021/12/25 07:54:13;;;;;;;2.58;0.98;;;;;;;;;;4890758;28;20044;-80
2021/12/25 07:56:39;;;;;;;3.75;0.50;;;;;;;;;;4875816;29;20033;-80
2021/12/25 07:59:06;;;;;;;1.98;0.85;;;;;;;;;;4874875;29;20374;-80
2021/12/25 08:01:34;;;;;;;4.40;0.75;;;;;;;;;;4874336;29;20044;-80
2021/12/25 08:04:01;;;;;;;1.65;0.40;;;;;;;;;;4875737;29;20036;-80
2021/12/25 08:06:27;;;;;;;0.50;0.30;;;;;;;;;;4890810;29;20059;-80
2021/12/25 08:08:56;;;;;;;0.52;0.38;;;;;;;;;;4892009;29;20123;-80
2021/12/25 08:11:22;;;;;;;3.35;0.50;;;;;;;;;;4872774;29;20033;-80
2021/12/25 08:13:48;;;;;;;1.95;0.43;;;;;;;;;;4872446;29;20508;-80
2021/12/25 08:16:14;;;;;;;5.72;0.45;;;;;;;;;;4873879;29;20055;-80
2021/12/25 08:18:40;;;;;;;1.63;0.80;;;;;;;;;;4888728;29;20111;-80
2021/12/25 08:21:06;;;;;;;2.22;0.35;;;;;;;;;;4871128;29;20035;-80
2021/12/25 08:23:32;;;;;;;1.23;0.57;;;;;;;;;;4874529;29;20092;-80
2021/12/25 08:25:59;;;;;;;0.57;0.50;;;;;;;;;;4875607;29;20120;-80
2021/12/25 08:28:25;;;;;;;0.98;0.65;;;;;;;;;;4891052;29;20056;-80
2021/12/25 08:30:51;;;;;;;4.50;0.95;;;;;;;;;;4876361;29;20060;-80
2021/12/25 08:33:17;;;;;;;3.53;1.52;;;;;;;;;;4872223;29;20073;-82
2021/12/25 08:35:43;;;;;;;6.00;0.80;;;;;;;;;;4884821;29;20375;-82
2021/12/25 08:38:11;;;;;;;0.52;0.45;;;;;;;;;;4888165;29;20504;-83
2021/12/25 08:40:38;;;;;;;0.68;0.60;;;;;;;;;;4875304;29;20071;-82
2021/12/25 08:43:04;;;;;;;0.20;0.20;;;;;;;;;;4890384;29;20487;-82
2021/12/25 08:45:49;;;;;;;4.57;0.90;;;;;;;;;;4884619;29;20041;-82
2021/12/25 08:48:19;;;;;;;0.90;0.43;;;;;;;;;;4874175;29;20158;-82
2021/12/25 08:50:47;;;;;;;3.05;0.60;;;;;;;;;;4889221;29;20101;-82
2021/12/25 08:53:13;;;;;;;0.65;0.65;;;;;;;;;;4890633;28;20132;-82
2021/12/25 08:55:39;;;;;;;1.30;0.45;;;;;;;;;;4875354;29;20393;-82
2021/12/25 08:58:05;;;;;;;0.40;0.30;;;;;;;;;;4875245;29;20512;-82
2021/12/25 09:00:31;;;;;;;0.55;0.40;;;;;;;;;;4872595;29;20029;-82
2021/12/25 09:02:57;;;;;;;1.15;0.50;;;;;;;;;;4890979;29;20119;-82
2021/12/25 09:05:24;;;;;;;0.90;0.47;;;;;;;;;;4886623;29;20459;-82
2021/12/25 09:07:50;;;;;;;0.57;0.35;;;;;;;;;;4875550;29;20045;-82
2021/12/25 09:10:16;;;;;;;1.65;0.63;;;;;;;;;;4875117;29;20035;-83
2021/12/25 09:12:45;;;;;;;6.60;0.57;;;;;;;;;;4888490;29;20672;-82
2021/12/25 09:15:11;;;;;;;1.45;0.52;;;;;;;;;;4875307;29;20031;-82
2021/12/25 09:17:37;;;;;;;7.18;1.35;;;;;;;;;;4872595;29;20037;-82
2021/12/25 09:20:04;;;;;;;2.47;0.65;;;;;;;;;;4886583;29;20109;-82
2021/12/25 09:22:30;;;;;;;3.00;0.93;;;;;;;;;;4889314;29;20037;-81
2021/12/25 09:24:56;;;;;;;5.75;1.00;;;;;;;;;;4877007;29;20104;-82
2021/12/25 09:27:22;;;;;;;3.47;1.55;;;;;;;;;;4868632;29;20584;-82
2021/12/25 09:29:49;;;;;;;2.05;0.73;;;;;;;;;;4877059;29;20028;-82
2021/12/25 09:32:15;;;;;;;1.08;0.65;;;;;;;;;;4872328;29;20127;-82
2021/12/25 09:34:42;;;;;;;2.88;1.02;;;;;;;;;;4873886;29;20568;-82
2021/12/25 09:37:08;;;;;;;5.72;0.88;;;;;;;;;;4889380;29;20528;-82
2021/12/25 09:39:34;;;;;;;1.13;0.55;;;;;;;;;;4888864;29;20374;-82
2021/12/25 09:42:00;;;;;;;4.95;1.00;;;;;;;;;;4873553;29;20362;-82
2021/12/25 09:44:26;;;;;;;1.45;0.52;;;;;;;;;;4868539;29;20044;-82
2021/12/25 09:46:53;;;;;;;2.88;1.20;;;;;;;;;;4873919;29;20052;-83
2021/12/25 09:49:19;;;;;;;2.03;0.77;;;;;;;;;;4887290;29;20393;-82
2021/12/25 09:51:45;;;;;;;2.58;0.90;;;;;;;;;;4889801;29;20028;-82
2021/12/25 09:54:18;;;;;;;3.33;1.17;;;;;;;;;;4877124;29;20136;-82
2021/12/25 09:56:47;;;;;;;1.52;0.38;;;;;;;;;;4884986;29;20035;-82
2021/12/25 09:59:13;;;;;;;2.97;0.90;;;;;;;;;;4883656;29;20041;-82
2021/12/25 10:01:42;;;;;;;2.40;0.68;;;;;;;;;;4885737;29;20389;-82
2021/12/25 10:04:09;;;;;;;6.28;1.70;;;;;;;;;;4888528;29;20045;-83
2021/12/25 10:06:36;;;;;;;5.40;1.50;;;;;;;;;;4872636;29;20092;-82
2021/12/25 10:09:13;;;;;;;3.05;1.40;;;;;;;;;;4886255;29;20044;-82
2021/12/25 10:11:39;;;;;;;3.72;1.73;;;;;;;;;;4887102;29;20158;-83
2021/12/25 10:14:05;;;;;;;1.40;1.30;;;;;;;;;;4868335;29;20112;-83
2021/12/25 10:16:32;;;;;;;4.47;1.77;;;;;;;;;;4870458;29;20125;-82
2021/12/25 10:19:15;;;;;;;2.08;1.58;;;;;;;;;;4889430;29;20467;-82
2021/12/25 10:21:41;;;;;;;3.42;1.60;;;;;;;;;;4888719;29;20372;-83
2021/12/25 10:24:18;;;;;;;7.25;2.38;;;;;;;;;;4870112;29;20049;-83
2021/12/25 10:27:16;;;;;;;3.45;1.77;;;;;;;;;;4716606;27;8646501;-83
2021/12/25 10:29:42;;;;;;;2.03;1.70;;;;;;;;;;4994715;28;20117;-83
2021/12/25 10:32:19;;;;;;;1.80;1.70;;;;;;;;;;4993212;28;20027;-82
2021/12/25 10:34:46;;;;;;;2.13;1.88;;;;;;;;;;4988729;28;20030;-83
2021/12/25 10:37:15;;;;;;;3.17;2.75;;;;;;;;;;4988948;28;20509;-83
2021/12/25 10:39:41;;;;;;;2.50;2.20;;;;;;;;;;4984883;28;20034;-83
2021/12/25 10:42:15;;;;;;;4.25;2.45;;;;;;;;;;4977454;28;20022;-82
2021/12/25 10:44:42;;;;;;;3.25;2.80;;;;;;;;;;4978333;28;20074;-83
2021/12/25 10:47:09;;;;;;;2.70;2.50;;;;;;;;;;4973467;28;20047;-81
2021/12/25 10:49:45;;;;;;;3.10;2.90;;;;;;;;;;4978780;28;20027;-81
2021/12/25 10:52:13;;;;;;;3.28;2.97;;;;;;;;;;4977111;28;20030;-81
2021/12/25 10:54:42;;;;;;;3.92;3.05;;;;;;;;;;4978769;28;20463;-81
2021/12/25 10:57:08;;;;;;;5.40;3.60;;;;;;;;;;4977009;28;20113;-81
2021/12/25 10:59:45;;;;;;;3.58;3.35;;;;;;;;;;4975974;28;20022;-81
2021/12/25 11:02:27;;;;;;;4.60;4.20;;;;;;;;;;4975894;28;20035;-80
2021/12/25 11:04:53;;;;;;;4.30;3.90;;;;;;;;;;4972764;28;20050;-81
2021/12/25 11:07:19;;;;;;;5.78;4.85;;;;;;;;;;4978947;28;20026;-81
2021/12/25 11:10:04;;;;;;;6.25;4.82;;;;;;;;;;4975746;28;20041;-82
2021/12/25 11:12:31;;;;;;;4.63;4.25;;;;;;;;;;4971463;28;20094;-81
2021/12/25 11:15:09;;;;;;;16.70;6.47;;;;;;;;;;4975913;28;20038;-81
2021/12/25 11:17:38;;;;;;;5.00;4.70;;;;;;;;;;4977415;28;20034;-82
2021/12/25 11:20:05;;;;;;;11.65;5.72;;;;;;;;;;4975683;28;20022;-82
2021/12/25 11:22:48;;;;;;;7.90;6.28;;;;;;;;;;4979310;28;20512;-82
2021/12/25 11:25:15;;;;;;;6.70;6.20;;;;;;;;;;4988442;28;20049;-83
2021/12/25 11:27:41;;;;;;;9.48;8.73;;;;;;;;;;4994046;28;20138;-83
2021/12/25 11:30:07;;;;;;;6.32;4.70;;;;;;;;;;4983202;28;20450;-82
2021/12/25 11:32:34;;;;;;;3.85;3.65;;;;;;;;;;4983861;28;20030;-82
2021/12/25 11:35:00;;;;;;;3.92;3.63;;;;;;;;;;4980862;28;20570;-83
2021/12/25 11:37:26;;;;;;;6.15;3.13;;;;;;;;;;4984446;28;20160;-83
2021/12/25 11:39:53;;;;;;;2.80;2.60;;;;;;;;;;4967756;28;20090;-83
2021/12/25 11:42:20;;;;;;;3.88;2.67;;;;;;;;;;4967099;28;20034;-82
2021/12/25 11:44:52;;;;;;;1.90;1.80;;;;;;;;;;4981549;28;20090;-82
2021/12/25 11:47:37;;;;;;;5.65;2.03;;;;;;;;;;4964256;28;20109;-83
2021/12/25 11:50:24;;;;;;;2.78;1.90;;;;;;;;;;4969040;28;20398;-83
2021/12/25 11:53:08;;;;;;;6.93;2.25;;;;;;;;;;4976849;28;20498;-83
2021/12/25 11:56:03;;;;;;;8.25;2.40;;;;;;;;;;4968719;28;20045;-80
2021/12/25 11:58:39;;;;;;;2.53;1.90;;;;;;;;;;4985484;28;20035;-79
2021/12/25 12:01:20;;;;;;;1.60;1.50;;;;;;;;;;4983682;28;20053;-79
2021/12/25 12:03:56;;;;;;;4.82;1.80;;;;;;;;;;4968156;28;20038;-79
2021/12/25 12:06:41;;;;;;;2.13;1.90;;;;;;;;;;4963321;28;20047;-79
2021/12/25 12:09:10;;;;;;;3.13;2.33;;;;;;;;;;4985140;28;20490;-79
2021/12/25 12:11:37;;;;;;;6.05;2.03;;;;;;;;;;4963269;28;20027;-79
2021/12/25 12:14:12;;;;;;;4.53;4.15;;;;;;;;;;4966654;28;20030;-81
2021/12/25 12:16:39;;;;;;;2.78;2.33;;;;;;;;;;4983072;28;20541;-80
2021/12/25 12:19:26;;;;;;;5.13;1.70;;;;;;;;;;4970408;28;20030;-79
2021/12/25 12:21:52;;;;;;;5.82;2.03;;;;;;;;;;4968779;28;20038;-80
2021/12/25 12:27:04;;;;;;;2.47;1.50;;;;;;;;;;4962916;28;20043;-81
2021/12/25 12:29:39;;;;;;;2.70;1.63;;;;;;;;;;4944987;28;20035;-80
2021/12/25 12:32:06;;;;;;;3.35;1.70;;;;;;;;;;4949061;28;20087;-80
2021/12/25 12:34:35;;;;;;;5.28;1.70;;;;;;;;;;4944976;28;20034;-81
2021/12/25 12:37:16;;;;;;;4.20;1.73;;;;;;;;;;4946747;28;20018;-80
2021/12/25 12:40:05;;;;;;;5.18;1.60;;;;;;;;;;4949263;28;20827;-80
2021/12/25 12:42:44;;;;;;;5.47;1.25;;;;;;;;;;4939910;28;20030;-80
2021/12/25 12:45:15;;;;;;;2.83;0.98;;;;;;;;;;4947212;28;20040;-80
2021/12/25 12:47:42;;;;;;;2.22;1.17;;;;;;;;;;4945812;28;20035;-79
2021/12/25 12:50:11;;;;;;;6.00;1.48;;;;;;;;;;4946550;28;20276;-81
2021/12/25 12:52:39;;;;;;;4.70;1.20;;;;;;;;;;4930478;28;20027;-80
2021/12/25 12:55:12;;;;;;;3.40;1.20;;;;;;;;;;4947413;28;20494;-80
2021/12/25 12:57:39;;;;;;;3.83;1.17;;;;;;;;;;4945533;28;20027;-80
2021/12/25 13:00:11;;;;;;;3.33;1.40;;;;;;;;;;4945536;28;20042;-80
2021/12/25 13:02:42;;;;;;;3.72;1.25;;;;;;;;;;4961338;28;20475;-80
2021/12/25 13:05:09;;;;;;;5.90;1.65;;;;;;;;;;4946394;28;20031;-80
2021/12/25 13:07:37;;;;;;;3.42;2.20;;;;;;;;;;4951473;28;20033;-80
2021/12/25 13:10:16;;;;;;;5.82;1.40;;;;;;;;;;4947993;28;20163;-80
2021/12/25 13:12:47;;;;;;;2.40;1.40;;;;;;;;;;4945629;28;20099;-79
2021/12/25 13:15:16;;;;;;;2.38;1.45;;;;;;;;;;4945279;28;20508;-80
2021/12/25 13:17:46;;;;;;;2.72;1.38;;;;;;;;;;4948236;28;20089;-80
2021/12/25 13:20:12;;;;;;;7.20;1.77;;;;;;;;;;4946710;28;20038;-79
2021/12/25 13:22:38;;;;;;;6.28;1.83;;;;;;;;;;4958298;28;20026;-80
2021/12/25 13:25:09;;;;;;;4.00;1.65;;;;;;;;;;4955228;28;20106;-80
2021/12/25 13:27:36;;;;;;;3.88;1.67;;;;;;;;;;4975774;28;20516;-80
2021/12/25 13:30:10;;;;;;;4.65;2.08;;;;;;;;;;4959828;28;20026;-80
2021/12/25 13:32:37;;;;;;;5.22;1.77;;;;;;;;;;4968251;28;20414;-80
2021/12/25 13:35:03;;;;;;;12.95;2.10;;;;;;;;;;4965191;28;20034;-80
2021/12/25 13:37:30;;;;;;;5.10;1.67;;;;;;;;;;4970236;28;20090;-80
2021/12/25 13:39:56;;;;;;;7.90;1.70;;;;;;;;;;4969508;28;20030;-80
2021/12/25 13:42:22;;;;;;;7.72;1.65;;;;;;;;;;4963977;28;20050;-80
2021/12/25 13:44:49;;;;;;;5.78;2.15;;;;;;;;;;4963854;28;20490;-80
2021/12/25 13:47:25;;;;;;;5.97;1.75;;;;;;;;;;4965197;28;20316;-80
2021/12/25 13:49:59;;;;;;;7.03;1.70;;;;;;;;;;4979093;28;20058;-80
2021/12/25 13:52:46;;;;;;;2.70;1.15;;;;;;;;;;4969179;28;20042;-80
2021/12/25 13:55:18;;;;;;;3.92;1.58;;;;;;;;;;4965353;28;20075;-80
2021/12/25 13:57:49;;;;;;;4.38;1.00;;;;;;;;;;4964212;28;20040;-84
2021/12/25 14:00:17;;;;;;;6.10;1.95;;;;;;;;;;4964498;28;20517;-84
2021/12/25 14:02:45;;;;;;;1.70;1.40;;;;;;;;;;4962135;28;20046;-84
2021/12/25 14:05:11;;;;;;;3.22;1.45;;;;;;;;;;4967359;28;20030;-84
2021/12/25 14:07:38;;;;;;;1.60;0.95;;;;;;;;;;4975255;28;21437;-84
2021/12/25 14:10:07;;;;;;;4.57;1.30;;;;;;;;;;4963574;28;20113;-84
2021/12/25 14:12:34;;;;;;;2.20;0.95;;;;;;;;;;4964159;28;20030;-84
2021/12/25 14:15:00;;;;;;;2.20;1.10;;;;;;;;;;4980107;28;20471;-83
2021/12/25 14:17:26;;;;;;;4.30;1.45;;;;;;;;;;4965011;28;20457;-84
2021/12/25 14:20:07;;;;;;;1.83;0.98;;;;;;;;;;4970550;28;20553;-84
2021/12/25 14:22:33;;;;;;;5.10;1.40;;;;;;;;;;4983768;28;20032;-84
2021/12/25 14:24:59;;;;;;;6.88;1.58;;;;;;;;;;4967036;28;20042;-83
2021/12/25 14:27:25;;;;;;;6.18;2.38;;;;;;;;;;4980639;28;20044;-84
2021/12/25 14:29:51;;;;;;;6.22;3.13;;;;;;;;;;4961448;28;20114;-83
2021/12/25 14:32:28;;;;;;;4.70;1.80;;;;;;;;;;4968264;28;20035;-83
2021/12/25 14:34:55;;;;;;;5.28;1.45;;;;;;;;;;4965123;28;20916;-84
2021/12/25 14:37:35;;;;;;;4.30;1.80;;;;;;;;;;4969474;28;20033;-83
2021/12/25 14:40:04;;;;;;;8.93;1.80;;;;;;;;;;4971079;28;20432;-84
2021/12/25 14:42:34;;;;;;;8.63;2.00;;;;;;;;;;4962877;28;20110;-83
2021/12/25 14:45:00;;;;;;;5.25;1.70;;;;;;;;;;4982599;28;20022;-84
2021/12/25 14:47:26;;;;;;;7.63;1.55;;;;;;;;;;4963261;28;20503;-83
2021/12/25 14:49:53;;;;;;;5.93;1.73;;;;;;;;;;4967907;28;20042;-84
2021/12/25 14:52:19;;;;;;;5.22;1.85;;;;;;;;;;4981207;28;20065;-83
2021/12/25 14:54:45;;;;;;;5.93;1.90;;;;;;;;;;4980470;28;20050;-83
2021/12/25 14:57:41;;;;;;;5.85;1.48;;;;;;;;;;4960670;28;20069;-83
2021/12/25 15:00:07;;;;;;;2.63;1.58;;;;;;;;;;4959059;28;20047;-83
2021/12/25 15:02:34;;;;;;;6.13;1.73;;;;;;;;;;4965707;28;20038;-83
2021/12/25 15:05:00;;;;;;;5.13;1.48;;;;;;;;;;4960947;28;20345;-83
2021/12/25 15:07:26;;;;;;;7.57;2.05;;;;;;;;;;4968427;28;20045;-83
2021/12/25 15:09:54;;;;;;;4.53;1.73;;;;;;;;;;4962992;28;20030;-83
2021/12/25 15:12:21;;;;;;;8.48;1.70;;;;;;;;;;4982338;28;20030;-83
2021/12/25 15:14:52;;;;;;;4.95;2.28;;;;;;;;;;4966663;28;20390;-83
2021/12/25 15:17:24;;;;;;;7.15;2.47;;;;;;;;;;4981965;28;20081;-83
2021/12/25 15:19:57;;;;;;;11.15;3.10;;;;;;;;;;4984463;28;20316;-83
2021/12/25 15:22:23;;;;;;;2.72;1.50;;;;;;;;;;4969794;28;20026;-83
2021/12/25 15:24:57;;;;;;;11.52;2.65;;;;;;;;;;4970866;28;20030;-83
2021/12/25 15:27:26;;;;;;;3.60;1.80;;;;;;;;;;4982448;28;20057;-83
2021/12/25 15:29:54;;;;;;;6.57;2.00;;;;;;;;;;4984866;28;20086;-82
2021/12/25 15:32:20;;;;;;;5.65;2.17;;;;;;;;;;4968837;28;20026;-82
2021/12/25 15:34:51;;;;;;;4.03;1.63;;;;;;;;;;4979177;28;20479;-83
2021/12/25 15:37:19;;;;;;;4.18;1.73;;;;;;;;;;4966155;28;20490;-83
2021/12/25 15:39:45;;;;;;;3.40;1.40;;;;;;;;;;4970078;28;20410;-83
2021/12/25 15:42:11;;;;;;;7.82;1.75;;;;;;;;;;4982652;28;20558;-83
2021/12/25 15:44:37;;;;;;;5.72;2.28;;;;;;;;;;4966813;28;20034;-83
2021/12/25 15:47:03;;;;;;;2.92;1.63;;;;;;;;;;4971907;28;20034;-83
2021/12/25 15:49:29;;;;;;;5.18;2.10;;;;;;;;;;4963590;28;20516;-83
2021/12/25 15:51:59;;;;;;;4.82;1.80;;;;;;;;;;4984874;28;20482;-83
2021/12/25 15:54:38;;;;;;;6.63;1.50;;;;;;;;;;4973038;28;20033;-83
2021/12/25 15:57:04;;;;;;;8.10;1.88;;;;;;;;;;4975794;28;20490;-82
2021/12/25 15:59:33;;;;;;;5.28;2.03;;;;;;;;;;4964609;28;20195;-84
2021/12/25 16:01:59;;;;;;;5.80;2.28;;;;;;;;;;4966613;28;20030;-83
2021/12/25 16:04:27;;;;;;;8.60;2.65;;;;;;;;;;4971072;28;20077;-83
2021/12/25 16:06:54;;;;;;;10.15;3.28;;;;;;;;;;4966023;28;20486;-83
2021/12/25 16:09:20;;;;;;;5.32;3.20;;;;;;;;;;4974087;28;20030;-83